Cherokee — 9HBC7 — position and weather

sailwx.info

Track history (hours):
 
Tides and Currents Weather Stations Pressure Air Temp Water Temp Dewpoint Dewpoint Depression Visibility Wind Speed Wind Dir Waves Ship Positions

Cherokee

Last reported at 2014-Jul-14 19:22 UTC. Time now 2014-Jul-23 16:06 UTC.
Position N 44°51' E 035°30'.
Warning: this ship's position is 8 days out of date.

Length 139 m; draft 3.8 m.

Type: Cargo ship. MMSI: 215059000.

Date/timePositionNaut miles runAvg speedWind from/ knotsBaromVisibWave heightAir tempDewpointWater temp
2014-Jul-14 19:22N 44°51' E 035°30'6 7.5
2014-Jul-14 18:33N 44°48' E 035°23'8 7.6
2014-Jul-14 17:33N 44°45' E 035°13'8 7.7
2014-Jul-14 16:33N 44°41' E 035°03'8 7.7
2014-Jul-14 15:33N 44°38' E 034°54'8 7.9
2014-Jul-14 14:33N 44°34' E 034°44'8 8.3
2014-Jul-14 13:33N 44°30' E 034°34'8 8.0
2014-Jul-14 12:33N 44°26' E 034°23'9 7.7
2014-Jul-14 11:26N 44°23' E 034°13'6 7.0
2014-Jul-14 10:33N 44°19' E 034°06'  
2014-Jul-11 01:15N 39°49' E 025°52'90 8.0
2014-Jul-10 14:07N 38°20' E 025°46'5 7.8
2014-Jul-10 13:30N 38°15' E 025°46'47 7.8
2014-Jul-10 07:29N 37°43' E 026°29'15 7.8
2014-Jul-10 05:33N 37°33' E 026°44'8 7.8
2014-Jul-10 04:33N 37°27' E 026°51'  
2014-Jul-07 11:29N 37°44' E 026°26'  
Track history (hours):
 
Tides and Currents Weather Stations Pressure Air Temp Water Temp Dewpoint Dewpoint Depression Visibility Wind Speed Wind Dir Waves Ship Positions

Cherokee

Last reported at 2014-Jul-14 19:22 UTC. Time now 2014-Jul-23 16:06 UTC.
Position N 44°51' E 035°30'.
Warning: this ship's position is 8 days out of date.

Length 139 m; draft 3.8 m.

Type: Cargo ship. MMSI: 215059000.

Date/timePositionNaut miles runAvg speedWind from/ knotsBaromVisibWave heightAir tempDewpointWater temp
2014-Jul-14 19:22N 44°51' E 035°30'6 7.5
2014-Jul-14 18:33N 44°48' E 035°23'8 7.6
2014-Jul-14 17:33N 44°45' E 035°13'8 7.7
2014-Jul-14 16:33N 44°41' E 035°03'8 7.7
2014-Jul-14 15:33N 44°38' E 034°54'8 7.9
2014-Jul-14 14:33N 44°34' E 034°44'8 8.3
2014-Jul-14 13:33N 44°30' E 034°34'8 8.0
2014-Jul-14 12:33N 44°26' E 034°23'9 7.7
2014-Jul-14 11:26N 44°23' E 034°13'6 7.0
2014-Jul-14 10:33N 44°19' E 034°06'  
2014-Jul-11 01:15N 39°49' E 025°52'90 8.0
2014-Jul-10 14:07N 38°20' E 025°46'5 7.8
2014-Jul-10 13:30N 38°15' E 025°46'47 7.8
2014-Jul-10 07:29N 37°43' E 026°29'15 7.8
2014-Jul-10 05:33N 37°33' E 026°44'8 7.8
2014-Jul-10 04:33N 37°27' E 026°51'  
2014-Jul-07 11:29N 37°44' E 026°26'  

Dump ship's entire track history